sensor_id;sensor_type;location;lat;lon;timestamp;pressure;altitude;pressure_sealevel;temperature;humidity
141;BME280;65;48.778;9.160;2022-11-15T00:00:43;98354.47;;;8.04;100.00
141;BME280;65;48.778;9.160;2022-11-15T00:03:08;98347.34;;;8.06;100.00
141;BME280;65;48.778;9.160;2022-11-15T00:05:35;98352.34;;;8.12;100.00
141;BME280;65;48.778;9.160;2022-11-15T00:08:01;98341.34;;;8.39;100.00
141;BME280;65;48.778;9.160;2022-11-15T00:10:27;98341.63;;;8.67;100.00
141;BME280;65;48.778;9.160;2022-11-15T00:12:52;98332.38;;;8.76;100.00
141;BME280;65;48.778;9.160;2022-11-15T00:15:17;98339.88;;;8.83;100.00
141;BME280;65;48.778;9.160;2022-11-15T00:17:43;98337.50;;;8.79;100.00
141;BME280;65;48.778;9.160;2022-11-15T00:20:08;98337.56;;;8.77;100.00
141;BME280;65;48.778;9.160;2022-11-15T00:22:34;98330.19;;;9.00;100.00
141;BME280;65;48.778;9.160;2022-11-15T00:24:59;98331.47;;;8.93;100.00
141;BME280;65;48.778;9.160;2022-11-15T00:27:25;98328.22;;;8.87;100.00
141;BME280;65;48.778;9.160;2022-11-15T00:29:50;98328.81;;;8.77;100.00
141;BME280;65;48.778;9.160;2022-11-15T00:32:15;98328.03;;;8.75;100.00
141;BME280;65;48.778;9.160;2022-11-15T00:34:41;98322.00;;;8.73;100.00
141;BME280;65;48.778;9.160;2022-11-15T00:37:06;98320.22;;;8.73;100.00
141;BME280;65;48.778;9.160;2022-11-15T00:39:32;98317.84;;;8.69;100.00
141;BME280;65;48.778;9.160;2022-11-15T00:41:57;98320.84;;;8.61;100.00
141;BME280;65;48.778;9.160;2022-11-15T00:44:22;98316.84;;;8.54;100.00
141;BME280;65;48.778;9.160;2022-11-15T00:46:48;98316.31;;;8.47;100.00
141;BME280;65;48.778;9.160;2022-11-15T00:49:13;98319.28;;;8.41;100.00
141;BME280;65;48.778;9.160;2022-11-15T00:51:38;98314.47;;;8.32;100.00
141;BME280;65;48.778;9.160;2022-11-15T00:54:04;98301.78;;;8.23;100.00
141;BME280;65;48.778;9.160;2022-11-15T00:56:29;98312.63;;;8.17;100.00
141;BME280;65;48.778;9.160;2022-11-15T00:58:54;98309.50;;;8.09;100.00
141;BME280;65;48.778;9.160;2022-11-15T01:01:20;98300.91;;;8.05;100.00
141;BME280;65;48.778;9.160;2022-11-15T01:03:45;98308.88;;;8.04;100.00
141;BME280;65;48.778;9.160;2022-11-15T01:06:11;98299.06;;;8.07;100.00
141;BME280;65;48.778;9.160;2022-11-15T01:08:39;98309.81;;;8.03;100.00
141;BME280;65;48.778;9.160;2022-11-15T01:11:07;98301.91;;;8.03;100.00
141;BME280;65;48.778;9.160;2022-11-15T01:13:34;98295.97;;;7.99;100.00
141;BME280;65;48.778;9.160;2022-11-15T01:16:10;98295.59;;;7.89;100.00
141;BME280;65;48.778;9.160;2022-11-15T01:18:36;98301.31;;;7.80;100.00
141;BME280;65;48.778;9.160;2022-11-15T01:21:16;98302.78;;;7.69;100.00
141;BME280;65;48.778;9.160;2022-11-15T01:23:42;98298.97;;;7.57;100.00
141;BME280;65;48.778;9.160;2022-11-15T01:26:11;98302.03;;;7.48;100.00
141;BME280;65;48.778;9.160;2022-11-15T01:28:37;98303.41;;;7.38;100.00
141;BME280;65;48.778;9.160;2022-11-15T01:31:15;98297.53;;;7.33;100.00
141;BME280;65;48.778;9.160;2022-11-15T01:33:41;98302.44;;;7.21;100.00
141;BME280;65;48.778;9.160;2022-11-15T01:36:15;98295.84;;;7.13;100.00
141;BME280;65;48.778;9.160;2022-11-15T01:38:41;98294.38;;;7.07;100.00
141;BME280;65;48.778;9.160;2022-11-15T01:41:14;98298.38;;;6.97;100.00
141;BME280;65;48.778;9.160;2022-11-15T01:43:39;98298.69;;;6.89;100.00
141;BME280;65;48.778;9.160;2022-11-15T01:48:51;98295.50;;;6.83;100.00
141;BME280;65;48.778;9.160;2022-11-15T01:51:20;98286.34;;;6.73;100.00
141;BME280;65;48.778;9.160;2022-11-15T01:53:49;98289.19;;;6.68;100.00
141;BME280;65;48.778;9.160;2022-11-15T01:56:23;98283.88;;;6.70;100.00
141;BME280;65;48.778;9.160;2022-11-15T01:58:49;98285.00;;;6.64;100.00
141;BME280;65;48.778;9.160;2022-11-15T02:01:17;98283.50;;;6.58;100.00
141;BME280;65;48.778;9.160;2022-11-15T02:03:51;98280.94;;;6.57;100.00
141;BME280;65;48.778;9.160;2022-11-15T02:06:18;98283.38;;;6.61;100.00
141;BME280;65;48.778;9.160;2022-11-15T02:08:44;98284.72;;;6.70;100.00
141;BME280;65;48.778;9.160;2022-11-15T02:11:10;98279.31;;;6.73;100.00
141;BME280;65;48.778;9.160;2022-11-15T02:13:36;98272.16;;;6.77;100.00
141;BME280;65;48.778;9.160;2022-11-15T02:30:27;98256.38;;;6.77;100.00
141;BME280;65;48.778;9.160;2022-11-15T02:33:02;98244.09;;;6.77;100.00
141;BME280;65;48.778;9.160;2022-11-15T02:38:12;98243.53;;;6.71;100.00
141;BME280;65;48.778;9.160;2022-11-15T02:43:35;98237.50;;;6.69;100.00
141;BME280;65;48.778;9.160;2022-11-15T02:49:08;98238.28;;;6.71;100.00
141;BME280;65;48.778;9.160;2022-11-15T02:51:34;98230.34;;;6.72;100.00
141;BME280;65;48.778;9.160;2022-11-15T02:54:03;98230.91;;;6.79;100.00
141;BME280;65;48.778;9.160;2022-11-15T02:56:28;98232.03;;;6.92;100.00
141;BME280;65;48.778;9.160;2022-11-15T03:04:27;98224.56;;;7.02;100.00
141;BME280;65;48.778;9.160;2022-11-15T03:07:02;98220.25;;;7.01;100.00
141;BME280;65;48.778;9.160;2022-11-15T03:15:05;98210.34;;;6.70;100.00
141;BME280;65;48.778;9.160;2022-11-15T03:17:46;98219.41;;;6.62;100.00
141;BME280;65;48.778;9.160;2022-11-15T03:20:15;98211.97;;;6.53;100.00
141;BME280;65;48.778;9.160;2022-11-15T03:22:44;98216.59;;;6.48;100.00
141;BME280;65;48.778;9.160;2022-11-15T03:25:15;98206.22;;;6.45;100.00
141;BME280;65;48.778;9.160;2022-11-15T03:27:46;98205.31;;;6.46;100.00
141;BME280;65;48.778;9.160;2022-11-15T03:30:14;98206.81;;;6.52;100.00
141;BME280;65;48.778;9.160;2022-11-15T03:32:45;98209.34;;;6.53;100.00
141;BME280;65;48.778;9.160;2022-11-15T03:35:14;98205.66;;;6.57;100.00
141;BME280;65;48.778;9.160;2022-11-15T03:37:44;98208.06;;;6.62;100.00
141;BME280;65;48.778;9.160;2022-11-15T03:40:11;98194.00;;;6.63;100.00
141;BME280;65;48.778;9.160;2022-11-15T03:46:03;98182.69;;;6.80;100.00
141;BME280;65;48.778;9.160;2022-11-15T03:48:43;98180.06;;;6.80;100.00
141;BME280;65;48.778;9.160;2022-11-15T03:51:11;98187.03;;;6.81;100.00
141;BME280;65;48.778;9.160;2022-11-15T03:53:36;98191.44;;;6.80;100.00
141;BME280;65;48.778;9.160;2022-11-15T03:56:02;98186.88;;;6.84;100.00
141;BME280;65;48.778;9.160;2022-11-15T03:58:27;98180.97;;;6.97;100.00
141;BME280;65;48.778;9.160;2022-11-15T04:00:52;98179.69;;;7.06;100.00
141;BME280;65;48.778;9.160;2022-11-15T04:03:18;98173.56;;;7.06;100.00
141;BME280;65;48.778;9.160;2022-11-15T04:05:43;98175.03;;;7.11;100.00
141;BME280;65;48.778;9.160;2022-11-15T04:08:08;98178.44;;;7.13;100.00
141;BME280;65;48.778;9.160;2022-11-15T04:10:34;98177.53;;;7.14;100.00
141;BME280;65;48.778;9.160;2022-11-15T04:12:59;98169.63;;;7.14;100.00
141;BME280;65;48.778;9.160;2022-11-15T04:15:26;98182.16;;;7.09;100.00
141;BME280;65;48.778;9.160;2022-11-15T04:17:55;98175.44;;;7.04;100.00
141;BME280;65;48.778;9.160;2022-11-15T04:20:41;98173.03;;;6.99;100.00
141;BME280;65;48.778;9.160;2022-11-15T04:23:25;98173.25;;;6.94;100.00
141;BME280;65;48.778;9.160;2022-11-15T04:26:14;98172.19;;;6.98;100.00
141;BME280;65;48.778;9.160;2022-11-15T04:28:41;98178.06;;;7.04;100.00
141;BME280;65;48.778;9.160;2022-11-15T04:31:26;98183.09;;;7.08;100.00
141;BME280;65;48.778;9.160;2022-11-15T04:33:52;98182.09;;;7.11;100.00
141;BME280;65;48.778;9.160;2022-11-15T04:36:18;98182.22;;;7.08;100.00
141;BME280;65;48.778;9.160;2022-11-15T04:39:02;98161.38;;;7.05;100.00
141;BME280;65;48.778;9.160;2022-11-15T04:41:28;98170.25;;;7.02;100.00
141;BME280;65;48.778;9.160;2022-11-15T04:43:54;98167.94;;;6.96;100.00
141;BME280;65;48.778;9.160;2022-11-15T04:46:20;98161.25;;;6.89;100.00
141;BME280;65;48.778;9.160;2022-11-15T04:48:46;98159.91;;;6.80;100.00
141;BME280;65;48.778;9.160;2022-11-15T04:51:11;98160.00;;;6.79;100.00
141;BME280;65;48.778;9.160;2022-11-15T04:53:36;98154.25;;;6.71;100.00
141;BME280;65;48.778;9.160;2022-11-15T04:56:02;98148.53;;;6.62;100.00
141;BME280;65;48.778;9.160;2022-11-15T04:58:27;98157.53;;;6.57;100.00
141;BME280;65;48.778;9.160;2022-11-15T05:00:52;98154.28;;;6.52;100.00
141;BME280;65;48.778;9.160;2022-11-15T05:03:18;98152.66;;;6.49;100.00
141;BME280;65;48.778;9.160;2022-11-15T05:06:02;98145.50;;;6.53;100.00
141;BME280;65;48.778;9.160;2022-11-15T05:08:27;98151.59;;;6.53;100.00
141;BME280;65;48.778;9.160;2022-11-15T05:10:53;98138.31;;;6.56;100.00
141;BME280;65;48.778;9.160;2022-11-15T05:13:18;98146.75;;;6.63;100.00
141;BME280;65;48.778;9.160;2022-11-15T05:15:43;98138.94;;;6.61;100.00
141;BME280;65;48.778;9.160;2022-11-15T05:18:09;98136.31;;;6.61;100.00
141;BME280;65;48.778;9.160;2022-11-15T05:20:34;98131.22;;;6.58;100.00
141;BME280;65;48.778;9.160;2022-11-15T05:23:00;98128.59;;;6.58;100.00
141;BME280;65;48.778;9.160;2022-11-15T05:25:25;98139.31;;;6.54;100.00
141;BME280;65;48.778;9.160;2022-11-15T05:27:51;98140.69;;;6.44;100.00
141;BME280;65;48.778;9.160;2022-11-15T05:30:16;98137.22;;;6.43;100.00
141;BME280;65;48.778;9.160;2022-11-15T05:32:43;98135.75;;;6.55;100.00
141;BME280;65;48.778;9.160;2022-11-15T05:35:18;98138.09;;;6.61;100.00
141;BME280;65;48.778;9.160;2022-11-15T05:37:45;98127.44;;;6.64;100.00
141;BME280;65;48.778;9.160;2022-11-15T05:40:10;98129.84;;;6.69;100.00
141;BME280;65;48.778;9.160;2022-11-15T05:42:36;98127.00;;;6.73;100.00
141;BME280;65;48.778;9.160;2022-11-15T05:45:03;98113.78;;;6.75;100.00
141;BME280;65;48.778;9.160;2022-11-15T05:47:29;98110.94;;;6.79;100.00
141;BME280;65;48.778;9.160;2022-11-15T05:49:56;98106.38;;;6.83;100.00
141;BME280;65;48.778;9.160;2022-11-15T05:52:25;98110.56;;;6.87;100.00
141;BME280;65;48.778;9.160;2022-11-15T05:54:55;98107.06;;;6.86;100.00
141;BME280;65;48.778;9.160;2022-11-15T05:57:21;98107.94;;;6.87;100.00
141;BME280;65;48.778;9.160;2022-11-15T05:59:47;98108.06;;;6.84;100.00
141;BME280;65;48.778;9.160;2022-11-15T06:02:12;98109.94;;;6.82;100.00
141;BME280;65;48.778;9.160;2022-11-15T06:04:38;98110.63;;;6.85;100.00
141;BME280;65;48.778;9.160;2022-11-15T06:07:03;98116.50;;;6.90;100.00
141;BME280;65;48.778;9.160;2022-11-15T06:09:28;98117.00;;;6.98;100.00
141;BME280;65;48.778;9.160;2022-11-15T06:11:54;98117.78;;;7.01;100.00
141;BME280;65;48.778;9.160;2022-11-15T06:14:19;98110.75;;;7.01;100.00
141;BME280;65;48.778;9.160;2022-11-15T06:16:45;98124.66;;;7.03;100.00
141;BME280;65;48.778;9.160;2022-11-15T06:19:10;98125.97;;;6.94;100.00
141;BME280;65;48.778;9.160;2022-11-15T06:21:35;98123.69;;;6.87;100.00
141;BME280;65;48.778;9.160;2022-11-15T06:24:01;98126.63;;;6.81;100.00
141;BME280;65;48.778;9.160;2022-11-15T06:26:26;98134.72;;;6.76;100.00
141;BME280;65;48.778;9.160;2022-11-15T06:28:52;98129.63;;;6.73;100.00
141;BME280;65;48.778;9.160;2022-11-15T06:31:17;98128.00;;;6.71;100.00
141;BME280;65;48.778;9.160;2022-11-15T06:33:42;98133.88;;;6.76;100.00
141;BME280;65;48.778;9.160;2022-11-15T06:36:12;98126.91;;;6.75;100.00
141;BME280;65;48.778;9.160;2022-11-15T06:38:40;98132.09;;;6.76;100.00
141;BME280;65;48.778;9.160;2022-11-15T06:41:08;98122.22;;;6.81;100.00
141;BME280;65;48.778;9.160;2022-11-15T06:43:34;98132.72;;;6.81;100.00
141;BME280;65;48.778;9.160;2022-11-15T06:46:01;98132.66;;;6.83;100.00
141;BME280;65;48.778;9.160;2022-11-15T06:48:27;98125.53;;;6.85;100.00
141;BME280;65;48.778;9.160;2022-11-15T06:50:54;98140.22;;;6.89;100.00
141;BME280;65;48.778;9.160;2022-11-15T06:53:19;98131.22;;;6.94;100.00
141;BME280;65;48.778;9.160;2022-11-15T06:55:45;98131.84;;;7.00;100.00
141;BME280;65;48.778;9.160;2022-11-15T06:58:10;98136.00;;;7.04;100.00
141;BME280;65;48.778;9.160;2022-11-15T07:00:36;98138.41;;;7.08;100.00
141;BME280;65;48.778;9.160;2022-11-15T07:03:01;98135.47;;;7.14;100.00
141;BME280;65;48.778;9.160;2022-11-15T07:05:27;98136.63;;;7.26;100.00
141;BME280;65;48.778;9.160;2022-11-15T07:07:54;98142.88;;;7.41;100.00
141;BME280;65;48.778;9.160;2022-11-15T07:10:20;98141.78;;;7.62;100.00
141;BME280;65;48.778;9.160;2022-11-15T07:12:48;98144.38;;;7.79;100.00
141;BME280;65;48.778;9.160;2022-11-15T07:15:15;98140.41;;;7.88;100.00
141;BME280;65;48.778;9.160;2022-11-15T07:17:41;98137.25;;;8.14;100.00
141;BME280;65;48.778;9.160;2022-11-15T07:20:07;98140.00;;;8.29;100.00
141;BME280;65;48.778;9.160;2022-11-15T07:22:32;98139.19;;;8.44;100.00
141;BME280;65;48.778;9.160;2022-11-15T07:24:58;98141.03;;;8.57;100.00
141;BME280;65;48.778;9.160;2022-11-15T07:27:23;98146.66;;;8.83;100.00
141;BME280;65;48.778;9.160;2022-11-15T07:29:49;98143.25;;;9.27;100.00
141;BME280;65;48.778;9.160;2022-11-15T07:32:14;98140.75;;;9.39;100.00
141;BME280;65;48.778;9.160;2022-11-15T07:34:39;98134.72;;;9.51;100.00
141;BME280;65;48.778;9.160;2022-11-15T07:37:05;98132.94;;;9.66;100.00
141;BME280;65;48.778;9.160;2022-11-15T07:39:30;98126.91;;;9.64;98.02
141;BME280;65;48.778;9.160;2022-11-15T07:41:55;98134.50;;;9.99;97.51
141;BME280;65;48.778;9.160;2022-11-15T07:44:41;98131.84;;;10.13;98.51
141;BME280;65;48.778;9.160;2022-11-15T07:47:06;98122.69;;;10.33;99.82
141;BME280;65;48.778;9.160;2022-11-15T07:49:31;98126.84;;;10.51;99.40
141;BME280;65;48.778;9.160;2022-11-15T07:51:57;98122.91;;;10.71;94.47
141;BME280;65;48.778;9.160;2022-11-15T07:54:22;98121.91;;;10.86;95.24
141;BME280;65;48.778;9.160;2022-11-15T07:56:48;98111.13;;;10.89;92.70
141;BME280;65;48.778;9.160;2022-11-15T07:59:13;98113.63;;;10.78;98.95
141;BME280;65;48.778;9.160;2022-11-15T08:01:40;98109.97;;;10.93;96.86
141;BME280;65;48.778;9.160;2022-11-15T08:04:05;98107.34;;;10.93;93.51
141;BME280;65;48.778;9.160;2022-11-15T08:06:30;98103.47;;;10.99;92.79
141;BME280;65;48.778;9.160;2022-11-15T08:08:56;98106.44;;;11.07;93.48
141;BME280;65;48.778;9.160;2022-11-15T08:11:21;98109.53;;;11.14;94.81
141;BME280;65;48.778;9.160;2022-11-15T08:13:46;98107.13;;;11.23;93.04
141;BME280;65;48.778;9.160;2022-11-15T08:16:12;98098.75;;;11.29;91.75
141;BME280;65;48.778;9.160;2022-11-15T08:18:37;98097.28;;;11.38;91.27
141;BME280;65;48.778;9.160;2022-11-15T08:21:04;98095.59;;;11.24;85.51
141;BME280;65;48.778;9.160;2022-11-15T08:23:29;98097.59;;;11.21;92.42
141;BME280;65;48.778;9.160;2022-11-15T08:26:02;98096.53;;;10.84;93.26
141;BME280;65;48.778;9.160;2022-11-15T08:28:29;98092.94;;;10.85;90.87
141;BME280;65;48.778;9.160;2022-11-15T08:30:54;98095.81;;;10.94;89.37
141;BME280;65;48.778;9.160;2022-11-15T08:33:20;98087.28;;;11.03;87.77
141;BME280;65;48.778;9.160;2022-11-15T08:35:45;98075.75;;;11.04;86.93
141;BME280;65;48.778;9.160;2022-11-15T08:38:11;98075.97;;;11.01;87.53
141;BME280;65;48.778;9.160;2022-11-15T08:40:37;98072.84;;;10.95;89.21
141;BME280;65;48.778;9.160;2022-11-15T08:43:03;98068.81;;;10.89;89.36
141;BME280;65;48.778;9.160;2022-11-15T08:45:29;98071.25;;;10.92;87.32
141;BME280;65;48.778;9.160;2022-11-15T08:47:55;98063.34;;;10.92;89.06
141;BME280;65;48.778;9.160;2022-11-15T08:50:21;98063.13;;;10.95;91.18
141;BME280;65;48.778;9.160;2022-11-15T08:52:46;98057.75;;;10.97;91.56
141;BME280;65;48.778;9.160;2022-11-15T08:55:13;98050.16;;;11.05;92.29
141;BME280;65;48.778;9.160;2022-11-15T08:57:38;98052.63;;;11.21;90.36
141;BME280;65;48.778;9.160;2022-11-15T09:00:05;98050.63;;;11.50;86.57
141;BME280;65;48.778;9.160;2022-11-15T09:02:30;98054.75;;;11.66;85.00
141;BME280;65;48.778;9.160;2022-11-15T09:04:56;98054.00;;;12.02;84.19
141;BME280;65;48.778;9.160;2022-11-15T09:07:21;98051.25;;;12.41;81.47
141;BME280;65;48.778;9.160;2022-11-15T09:09:46;98045.19;;;12.75;79.12
141;BME280;65;48.778;9.160;2022-11-15T09:12:12;98054.66;;;12.90;76.83
141;BME280;65;48.778;9.160;2022-11-15T09:14:38;98050.09;;;13.04;76.01
141;BME280;65;48.778;9.160;2022-11-15T09:17:03;98039.63;;;13.13;77.56
141;BME280;65;48.778;9.160;2022-11-15T09:19:29;98046.66;;;13.49;76.42
141;BME280;65;48.778;9.160;2022-11-15T09:21:54;98048.84;;;13.67;76.42
141;BME280;65;48.778;9.160;2022-11-15T09:24:20;98042.91;;;13.63;75.12
141;BME280;65;48.778;9.160;2022-11-15T09:26:46;98043.88;;;13.84;76.68
141;BME280;65;48.778;9.160;2022-11-15T09:29:11;98046.44;;;13.97;76.52
141;BME280;65;48.778;9.160;2022-11-15T09:31:36;98042.31;;;13.59;76.18
141;BME280;65;48.778;9.160;2022-11-15T09:34:02;98044.13;;;13.70;75.61
141;BME280;65;48.778;9.160;2022-11-15T09:36:27;98051.38;;;13.79;77.31
141;BME280;65;48.778;9.160;2022-11-15T09:38:53;98040.16;;;13.98;75.09
141;BME280;65;48.778;9.160;2022-11-15T09:41:46;98044.16;;;13.92;79.27
141;BME280;65;48.778;9.160;2022-11-15T09:44:38;98047.50;;;14.17;73.47
141;BME280;65;48.778;9.160;2022-11-15T09:49:55;98026.53;;;13.91;79.58
141;BME280;65;48.778;9.160;2022-11-15T09:52:22;98034.13;;;13.96;74.21
141;BME280;65;48.778;9.160;2022-11-15T09:54:49;98027.94;;;14.18;75.95
141;BME280;65;48.778;9.160;2022-11-15T09:57:18;98014.72;;;14.39;76.38
141;BME280;65;48.778;9.160;2022-11-15T10:05:23;98016.81;;;14.78;71.44
141;BME280;65;48.778;9.160;2022-11-15T10:08:53;98006.69;;;14.93;67.19
141;BME280;65;48.778;9.160;2022-11-15T10:11:02;98006.16;;;14.78;70.66
141;BME280;65;48.778;9.160;2022-11-15T10:13:32;98008.13;;;14.11;70.02
141;BME280;65;48.778;9.160;2022-11-15T10:22:29;98000.81;;;14.35;73.44
141;BME280;65;48.778;9.160;2022-11-15T10:25:21;97999.75;;;14.49;70.43
141;BME280;65;48.778;9.160;2022-11-15T10:28:00;97997.22;;;14.47;75.48
141;BME280;65;48.778;9.160;2022-11-15T10:30:37;97982.63;;;14.19;72.66
141;BME280;65;48.778;9.160;2022-11-15T10:33:26;97986.00;;;14.21;76.12
141;BME280;65;48.778;9.160;2022-11-15T10:41:15;97979.94;;;14.31;74.24
141;BME280;65;48.778;9.160;2022-11-15T10:43:41;97977.31;;;14.19;72.78
141;BME280;65;48.778;9.160;2022-11-15T10:46:21;97968.25;;;14.22;74.03
141;BME280;65;48.778;9.160;2022-11-15T10:48:47;97966.47;;;14.11;78.65
141;BME280;65;48.778;9.160;2022-11-15T10:51:21;97961.19;;;14.32;73.58
141;BME280;65;48.778;9.160;2022-11-15T10:53:48;97964.22;;;14.50;71.46
141;BME280;65;48.778;9.160;2022-11-15T10:56:14;97952.22;;;14.55;72.66
141;BME280;65;48.778;9.160;2022-11-15T10:58:53;97953.84;;;14.47;71.76
141;BME280;65;48.778;9.160;2022-11-15T11:01:22;97948.50;;;14.47;74.20
141;BME280;65;48.778;9.160;2022-11-15T11:04:17;97953.38;;;14.19;78.92
141;BME280;65;48.778;9.160;2022-11-15T11:06:51;97951.22;;;14.13;76.37
141;BME280;65;48.778;9.160;2022-11-15T11:11:58;97950.31;;;13.92;77.66
141;BME280;65;48.778;9.160;2022-11-15T11:14:26;97958.28;;;13.92;80.90
141;BME280;65;48.778;9.160;2022-11-15T11:25:19;97938.78;;;14.14;77.77
141;BME280;65;48.778;9.160;2022-11-15T11:30:44;97931.91;;;14.11;76.69
141;BME280;65;48.778;9.160;2022-11-15T11:35:52;97930.63;;;14.49;73.85
141;BME280;65;48.778;9.160;2022-11-15T11:39:21;97922.31;;;14.63;73.73
141;BME280;65;48.778;9.160;2022-11-15T11:44:04;97913.56;;;15.14;69.47
141;BME280;65;48.778;9.160;2022-11-15T11:49:11;97897.19;;;14.98;75.54
141;BME280;65;48.778;9.160;2022-11-15T11:51:42;97890.16;;;14.66;71.43
141;BME280;65;48.778;9.160;2022-11-15T11:56:36;97893.28;;;15.02;76.43
141;BME280;65;48.778;9.160;2022-11-15T11:59:21;97890.78;;;14.79;73.98
141;BME280;65;48.778;9.160;2022-11-15T12:01:51;97889.56;;;15.04;71.27
141;BME280;65;48.778;9.160;2022-11-15T12:04:42;97884.81;;;15.08;70.04
141;BME280;65;48.778;9.160;2022-11-15T12:07:25;97891.97;;;15.47;72.27
141;BME280;65;48.778;9.160;2022-11-15T12:13:04;97880.59;;;15.05;70.25
141;BME280;65;48.778;9.160;2022-11-15T12:15:53;97870.59;;;15.28;69.78
141;BME280;65;48.778;9.160;2022-11-15T12:18:22;97871.16;;;15.22;70.34
141;BME280;65;48.778;9.160;2022-11-15T12:20:54;97867.59;;;15.12;71.48
141;BME280;65;48.778;9.160;2022-11-15T12:23:27;97865.72;;;15.03;71.85
141;BME280;65;48.778;9.160;2022-11-15T12:26:01;97874.09;;;14.98;73.49
141;BME280;65;48.778;9.160;2022-11-15T12:28:42;97869.25;;;14.82;71.18
141;BME280;65;48.778;9.160;2022-11-15T12:31:15;97857.97;;;14.69;80.35
141;BME280;65;48.778;9.160;2022-11-15T12:33:49;97863.34;;;14.58;77.51
141;BME280;65;48.778;9.160;2022-11-15T12:41:35;97849.41;;;14.34;76.66
141;BME280;65;48.778;9.160;2022-11-15T12:44:02;97858.63;;;14.30;80.95
141;BME280;65;48.778;9.160;2022-11-15T12:48:56;97848.44;;;14.46;75.54
141;BME280;65;48.778;9.160;2022-11-15T12:59:48;97839.03;;;14.10;82.41
141;BME280;65;48.778;9.160;2022-11-15T13:02:23;97835.59;;;14.19;77.75
141;BME280;65;48.778;9.160;2022-11-15T13:04:51;97833.25;;;14.25;79.93
141;BME280;65;48.778;9.160;2022-11-15T13:17:41;97820.81;;;14.05;81.38
141;BME280;65;48.778;9.160;2022-11-15T13:30:37;97807.72;;;14.13;80.08
141;BME280;65;48.778;9.160;2022-11-15T13:33:36;97801.81;;;14.10;79.45
141;BME280;65;48.778;9.160;2022-11-15T13:36:13;97801.34;;;14.05;80.18
141;BME280;65;48.778;9.160;2022-11-15T13:38:40;97796.69;;;13.97;81.61
141;BME280;65;48.778;9.160;2022-11-15T13:41:24;97791.50;;;13.96;82.07
141;BME280;65;48.778;9.160;2022-11-15T13:43:52;97789.00;;;13.83;82.60
141;BME280;65;48.778;9.160;2022-11-15T13:46:20;97779.13;;;13.74;83.80
141;BME280;65;48.778;9.160;2022-11-15T13:48:52;97775.75;;;13.72;84.46
141;BME280;65;48.778;9.160;2022-11-15T13:54:41;97775.63;;;13.73;84.96
141;BME280;65;48.778;9.160;2022-11-15T13:56:46;97769.66;;;13.60;87.18
141;BME280;65;48.778;9.160;2022-11-15T13:59:28;97764.97;;;13.52;88.81
141;BME280;65;48.778;9.160;2022-11-15T14:01:56;97767.56;;;13.32;91.48
141;BME280;65;48.778;9.160;2022-11-15T14:04:23;97762.38;;;13.08;99.23
141;BME280;65;48.778;9.160;2022-11-15T14:06:53;97764.81;;;12.77;100.00
141;BME280;65;48.778;9.160;2022-11-15T14:11:52;97755.50;;;12.49;100.00
141;BME280;65;48.778;9.160;2022-11-15T14:14:23;97759.25;;;12.47;100.00
141;BME280;65;48.778;9.160;2022-11-15T14:16:57;97752.38;;;12.44;100.00
141;BME280;65;48.778;9.160;2022-11-15T14:22:13;97755.63;;;12.37;100.00
141;BME280;65;48.778;9.160;2022-11-15T14:24:40;97745.50;;;12.42;100.00
141;BME280;65;48.778;9.160;2022-11-15T14:27:24;97737.44;;;12.32;99.60
141;BME280;65;48.778;9.160;2022-11-15T14:29:50;97735.16;;;12.39;99.35
141;BME280;65;48.778;9.160;2022-11-15T14:34:46;97719.97;;;12.41;100.00
141;BME280;65;48.778;9.160;2022-11-15T14:39:48;97712.25;;;12.38;98.95
141;BME280;65;48.778;9.160;2022-11-15T14:42:14;97710.56;;;12.37;100.00
141;BME280;65;48.778;9.160;2022-11-15T14:44:40;97712.00;;;12.41;99.67
141;BME280;65;48.778;9.160;2022-11-15T14:47:06;97696.97;;;12.41;98.70
141;BME280;65;48.778;9.160;2022-11-15T14:49:31;97706.97;;;12.38;99.35
141;BME280;65;48.778;9.160;2022-11-15T14:51:56;97705.28;;;12.37;100.00
141;BME280;65;48.778;9.160;2022-11-15T14:54:22;97694.91;;;12.33;99.15
141;BME280;65;48.778;9.160;2022-11-15T14:56:47;97692.38;;;12.32;99.58
141;BME280;65;48.778;9.160;2022-11-15T14:59:12;97698.75;;;12.29;100.00
141;BME280;65;48.778;9.160;2022-11-15T15:01:38;97690.34;;;12.24;100.00
141;BME280;65;48.778;9.160;2022-11-15T15:04:03;97689.50;;;12.24;100.00
141;BME280;65;48.778;9.160;2022-11-15T15:06:29;97685.88;;;12.25;100.00
141;BME280;65;48.778;9.160;2022-11-15T15:08:55;97686.84;;;12.24;98.24
141;BME280;65;48.778;9.160;2022-11-15T15:11:23;97688.75;;;12.22;98.09
141;BME280;65;48.778;9.160;2022-11-15T15:13:49;97674.41;;;12.13;99.21
141;BME280;65;48.778;9.160;2022-11-15T15:16:20;97671.75;;;12.13;98.26
141;BME280;65;48.778;9.160;2022-11-15T15:18:46;97677.16;;;12.12;99.36
141;BME280;65;48.778;9.160;2022-11-15T15:23:44;97651.06;;;12.18;96.56
141;BME280;65;48.778;9.160;2022-11-15T15:26:09;97648.41;;;12.07;99.04
141;BME280;65;48.778;9.160;2022-11-15T15:28:35;97648.28;;;11.97;100.00
141;BME280;65;48.778;9.160;2022-11-15T15:31:03;97646.81;;;11.93;100.00
141;BME280;65;48.778;9.160;2022-11-15T15:33:29;97645.13;;;11.92;100.00
141;BME280;65;48.778;9.160;2022-11-15T15:35:54;97647.91;;;11.91;99.83
141;BME280;65;48.778;9.160;2022-11-15T15:38:20;97642.84;;;11.99;96.77
141;BME280;65;48.778;9.160;2022-11-15T15:40:46;97637.91;;;12.06;97.95
141;BME280;65;48.778;9.160;2022-11-15T15:43:12;97644.66;;;12.10;96.00
141;BME280;65;48.778;9.160;2022-11-15T15:45:38;97629.13;;;12.05;97.46
141;BME280;65;48.778;9.160;2022-11-15T15:48:05;97628.75;;;12.10;96.92
141;BME280;65;48.778;9.160;2022-11-15T15:50:34;97627.19;;;12.07;96.27
141;BME280;65;48.778;9.160;2022-11-15T15:53:02;97628.28;;;12.04;96.08
141;BME280;65;48.778;9.160;2022-11-15T15:55:28;97625.75;;;12.03;96.61
141;BME280;65;48.778;9.160;2022-11-15T15:57:54;97627.34;;;12.17;95.21
141;BME280;65;48.778;9.160;2022-11-15T16:00:20;97623.84;;;12.27;94.84
141;BME280;65;48.778;9.160;2022-11-15T16:02:46;97616.63;;;12.18;95.24
141;BME280;65;48.778;9.160;2022-11-15T16:05:12;97604.09;;;12.09;95.49
141;BME280;65;48.778;9.160;2022-11-15T16:07:38;97606.97;;;12.06;95.77
141;BME280;65;48.778;9.160;2022-11-15T16:10:21;97605.31;;;12.16;94.66
141;BME280;65;48.778;9.160;2022-11-15T16:12:47;97602.88;;;12.13;95.81
141;BME280;65;48.778;9.160;2022-11-15T16:15:12;97603.13;;;12.10;95.11
141;BME280;65;48.778;9.160;2022-11-15T16:17:40;97591.59;;;12.22;94.26
141;BME280;65;48.778;9.160;2022-11-15T16:20:20;97580.16;;;12.22;93.91
141;BME280;65;48.778;9.160;2022-11-15T16:22:47;97578.94;;;12.15;93.05
141;BME280;65;48.778;9.160;2022-11-15T16:25:12;97580.13;;;12.11;94.47